Terminal Aerodrome Forecast
Issued by NWS

Home | Current Version | Previous Version | Text Only | Print | Product List | Glossary On
Versions: 1 2 3 4 5 6 7 8 9 10 11 12
000
FTUS45 KABQ 282320
TAFLVS
TAF
KLVS 282320Z 2900/2924 26015G25KT P6SM SKC
     FM290200 01008KT P6SM SKC
     FM291700 21012G22KT P6SM SCT110 SCT250
     FM292100 21015G25KT P6SM VCSH SCT090 BKN200=

USA.gov is the U.S. government's official web portal to all federal, state and local government web resources and services.